sensor_id;sensor_type;location;lat;lon;timestamp;P1;durP1;ratioP1;P2;durP2;ratioP2
23140;SDS011;11739;54.750;9.124;2023-04-16T00:00:41;13.35;;;12.15;;
23140;SDS011;11739;54.750;9.124;2023-04-16T00:03:06;13.23;;;12.02;;
23140;SDS011;11739;54.750;9.124;2023-04-16T00:05:31;12.75;;;11.55;;
23140;SDS011;11739;54.750;9.124;2023-04-16T00:07:57;12.32;;;11.23;;
23140;SDS011;11739;54.750;9.124;2023-04-16T00:10:22;13.70;;;12.45;;
23140;SDS011;11739;54.750;9.124;2023-04-16T00:12:47;13.32;;;12.05;;
23140;SDS011;11739;54.750;9.124;2023-04-16T00:15:13;12.38;;;11.20;;
23140;SDS011;11739;54.750;9.124;2023-04-16T00:17:39;11.82;;;10.73;;
23140;SDS011;11739;54.750;9.124;2023-04-16T00:20:04;11.90;;;10.80;;
23140;SDS011;11739;54.750;9.124;2023-04-16T00:22:30;12.98;;;11.77;;
23140;SDS011;11739;54.750;9.124;2023-04-16T00:24:55;12.18;;;11.00;;
23140;SDS011;11739;54.750;9.124;2023-04-16T00:27:20;12.63;;;11.40;;
23140;SDS011;11739;54.750;9.124;2023-04-16T00:29:46;12.15;;;11.05;;
23140;SDS011;11739;54.750;9.124;2023-04-16T00:32:11;12.63;;;11.43;;
23140;SDS011;11739;54.750;9.124;2023-04-16T00:34:36;12.65;;;11.45;;
23140;SDS011;11739;54.750;9.124;2023-04-16T00:37:02;11.93;;;10.82;;
23140;SDS011;11739;54.750;9.124;2023-04-16T00:39:27;12.10;;;10.90;;
23140;SDS011;11739;54.750;9.124;2023-04-16T00:41:52;12.10;;;10.90;;
23140;SDS011;11739;54.750;9.124;2023-04-16T00:44:17;11.57;;;10.02;;
23140;SDS011;11739;54.750;9.124;2023-04-16T00:46:43;11.75;;;10.52;;
23140;SDS011;11739;54.750;9.124;2023-04-16T00:49:09;11.35;;;10.25;;
23140;SDS011;11739;54.750;9.124;2023-04-16T00:51:34;11.18;;;10.13;;
23140;SDS011;11739;54.750;9.124;2023-04-16T00:54:00;12.05;;;10.85;;
23140;SDS011;11739;54.750;9.124;2023-04-16T00:56:26;11.57;;;10.48;;
23140;SDS011;11739;54.750;9.124;2023-04-16T00:58:52;11.65;;;10.63;;
23140;SDS011;11739;54.750;9.124;2023-04-16T01:01:18;12.65;;;11.35;;
23140;SDS011;11739;54.750;9.124;2023-04-16T01:03:44;12.13;;;10.93;;
23140;SDS011;11739;54.750;9.124;2023-04-16T01:06:11;12.75;;;11.45;;
23140;SDS011;11739;54.750;9.124;2023-04-16T01:08:36;12.15;;;10.95;;
23140;SDS011;11739;54.750;9.124;2023-04-16T01:11:01;12.15;;;11.05;;
23140;SDS011;11739;54.750;9.124;2023-04-16T01:13:27;11.85;;;10.75;;
23140;SDS011;11739;54.750;9.124;2023-04-16T01:15:52;12.43;;;11.32;;
23140;SDS011;11739;54.750;9.124;2023-04-16T01:18:18;12.38;;;11.20;;
23140;SDS011;11739;54.750;9.124;2023-04-16T01:20:45;11.80;;;10.70;;
23140;SDS011;11739;54.750;9.124;2023-04-16T01:23:13;13.02;;;11.73;;
23140;SDS011;11739;54.750;9.124;2023-04-16T01:25:39;14.55;;;12.05;;
23140;SDS011;11739;54.750;9.124;2023-04-16T01:28:04;12.40;;;11.20;;
23140;SDS011;11739;54.750;9.124;2023-04-16T01:30:30;11.95;;;10.85;;
23140;SDS011;11739;54.750;9.124;2023-04-16T01:32:55;11.65;;;10.65;;
23140;SDS011;11739;54.750;9.124;2023-04-16T01:35:21;11.63;;;10.55;;
23140;SDS011;11739;54.750;9.124;2023-04-16T01:37:46;12.32;;;11.05;;
23140;SDS011;11739;54.750;9.124;2023-04-16T01:40:13;12.50;;;11.30;;
23140;SDS011;11739;54.750;9.124;2023-04-16T01:42:39;13.73;;;11.98;;
23140;SDS011;11739;54.750;9.124;2023-04-16T01:45:04;12.43;;;11.23;;
23140;SDS011;11739;54.750;9.124;2023-04-16T01:47:30;11.30;;;10.32;;
23140;SDS011;11739;54.750;9.124;2023-04-16T01:49:55;12.48;;;11.30;;
23140;SDS011;11739;54.750;9.124;2023-04-16T01:52:21;12.55;;;11.35;;
23140;SDS011;11739;54.750;9.124;2023-04-16T01:54:46;12.43;;;11.32;;
23140;SDS011;11739;54.750;9.124;2023-04-16T01:57:11;11.95;;;10.85;;
23140;SDS011;11739;54.750;9.124;2023-04-16T01:59:36;13.10;;;11.80;;
23140;SDS011;11739;54.750;9.124;2023-04-16T02:02:09;12.18;;;10.98;;
23140;SDS011;11739;54.750;9.124;2023-04-16T02:04:34;13.07;;;11.73;;
23140;SDS011;11739;54.750;9.124;2023-04-16T02:07:00;12.75;;;11.45;;
23140;SDS011;11739;54.750;9.124;2023-04-16T02:09:26;11.25;;;10.15;;
23140;SDS011;11739;54.750;9.124;2023-04-16T02:11:51;12.18;;;10.98;;
23140;SDS011;11739;54.750;9.124;2023-04-16T02:14:16;11.65;;;10.55;;
23140;SDS011;11739;54.750;9.124;2023-04-16T02:16:42;11.93;;;10.90;;
23140;SDS011;11739;54.750;9.124;2023-04-16T02:19:07;12.52;;;11.32;;
23140;SDS011;11739;54.750;9.124;2023-04-16T02:21:32;12.60;;;11.40;;
23140;SDS011;11739;54.750;9.124;2023-04-16T02:23:58;12.63;;;11.32;;
23140;SDS011;11739;54.750;9.124;2023-04-16T02:26:23;12.38;;;11.20;;
23140;SDS011;11739;54.750;9.124;2023-04-16T02:28:48;12.75;;;11.40;;
23140;SDS011;11739;54.750;9.124;2023-04-16T02:31:13;11.73;;;10.63;;
23140;SDS011;11739;54.750;9.124;2023-04-16T02:33:39;13.07;;;11.82;;
23140;SDS011;11739;54.750;9.124;2023-04-16T02:36:04;11.65;;;10.65;;
23140;SDS011;11739;54.750;9.124;2023-04-16T02:38:30;12.65;;;11.35;;
23140;SDS011;11739;54.750;9.124;2023-04-16T02:40:55;12.43;;;11.20;;
23140;SDS011;11739;54.750;9.124;2023-04-16T02:43:20;12.43;;;11.23;;
23140;SDS011;11739;54.750;9.124;2023-04-16T02:45:46;11.63;;;10.57;;
23140;SDS011;11739;54.750;9.124;2023-04-16T02:48:11;11.68;;;10.68;;
23140;SDS011;11739;54.750;9.124;2023-04-16T02:50:36;14.02;;;11.82;;
23140;SDS011;11739;54.750;9.124;2023-04-16T02:53:01;11.80;;;10.73;;
23140;SDS011;11739;54.750;9.124;2023-04-16T02:55:27;11.20;;;10.20;;
23140;SDS011;11739;54.750;9.124;2023-04-16T02:57:52;11.85;;;10.65;;
23140;SDS011;11739;54.750;9.124;2023-04-16T03:00:17;11.93;;;10.82;;
23140;SDS011;11739;54.750;9.124;2023-04-16T03:02:43;11.68;;;10.48;;
23140;SDS011;11739;54.750;9.124;2023-04-16T03:05:08;11.70;;;10.50;;
23140;SDS011;11739;54.750;9.124;2023-04-16T03:07:33;11.75;;;10.55;;
23140;SDS011;11739;54.750;9.124;2023-04-16T03:09:59;12.07;;;10.82;;
23140;SDS011;11739;54.750;9.124;2023-04-16T03:12:24;12.48;;;11.18;;
23140;SDS011;11739;54.750;9.124;2023-04-16T03:14:50;11.60;;;10.50;;
23140;SDS011;11739;54.750;9.124;2023-04-16T03:17:15;14.32;;;11.05;;
23140;SDS011;11739;54.750;9.124;2023-04-16T03:19:40;11.95;;;10.85;;
23140;SDS011;11739;54.750;9.124;2023-04-16T03:22:06;12.32;;;11.15;;
23140;SDS011;11739;54.750;9.124;2023-04-16T03:24:31;13.00;;;11.80;;
23140;SDS011;11739;54.750;9.124;2023-04-16T03:26:56;12.70;;;11.60;;
23140;SDS011;11739;54.750;9.124;2023-04-16T03:29:22;12.27;;;11.07;;
23140;SDS011;11739;54.750;9.124;2023-04-16T03:31:47;12.60;;;11.18;;
23140;SDS011;11739;54.750;9.124;2023-04-16T03:34:12;12.90;;;11.57;;
23140;SDS011;11739;54.750;9.124;2023-04-16T03:36:38;12.27;;;11.15;;
23140;SDS011;11739;54.750;9.124;2023-04-16T03:39:03;12.77;;;11.57;;
23140;SDS011;11739;54.750;9.124;2023-04-16T03:41:28;12.63;;;11.32;;
23140;SDS011;11739;54.750;9.124;2023-04-16T03:43:54;12.07;;;10.98;;
23140;SDS011;11739;54.750;9.124;2023-04-16T03:46:19;13.23;;;11.82;;
23140;SDS011;11739;54.750;9.124;2023-04-16T03:48:44;12.45;;;11.35;;
23140;SDS011;11739;54.750;9.124;2023-04-16T03:51:10;12.50;;;11.30;;
23140;SDS011;11739;54.750;9.124;2023-04-16T03:53:35;12.02;;;10.95;;
23140;SDS011;11739;54.750;9.124;2023-04-16T03:56:00;12.57;;;11.32;;
23140;SDS011;11739;54.750;9.124;2023-04-16T03:58:26;12.40;;;11.30;;
23140;SDS011;11739;54.750;9.124;2023-04-16T04:00:54;14.05;;;12.13;;
23140;SDS011;11739;54.750;9.124;2023-04-16T04:03:19;12.43;;;11.13;;
23140;SDS011;11739;54.750;9.124;2023-04-16T04:05:44;13.18;;;11.77;;
23140;SDS011;11739;54.750;9.124;2023-04-16T04:08:10;12.73;;;11.38;;
23140;SDS011;11739;54.750;9.124;2023-04-16T04:10:35;13.60;;;12.30;;
23140;SDS011;11739;54.750;9.124;2023-04-16T04:13:01;13.35;;;12.05;;
23140;SDS011;11739;54.750;9.124;2023-04-16T04:15:27;12.48;;;11.30;;
23140;SDS011;11739;54.750;9.124;2023-04-16T04:17:52;12.40;;;11.20;;
23140;SDS011;11739;54.750;9.124;2023-04-16T04:20:18;12.50;;;11.30;;
23140;SDS011;11739;54.750;9.124;2023-04-16T04:22:43;13.45;;;12.05;;
23140;SDS011;11739;54.750;9.124;2023-04-16T04:25:09;13.52;;;12.13;;
23140;SDS011;11739;54.750;9.124;2023-04-16T04:27:34;13.30;;;12.10;;
23140;SDS011;11739;54.750;9.124;2023-04-16T04:30:00;12.75;;;11.55;;
23140;SDS011;11739;54.750;9.124;2023-04-16T04:32:25;13.35;;;12.05;;
23140;SDS011;11739;54.750;9.124;2023-04-16T04:34:50;13.35;;;11.85;;
23140;SDS011;11739;54.750;9.124;2023-04-16T04:37:15;13.82;;;12.43;;
23140;SDS011;11739;54.750;9.124;2023-04-16T04:39:41;12.75;;;11.55;;
23140;SDS011;11739;54.750;9.124;2023-04-16T04:42:06;12.90;;;11.70;;
23140;SDS011;11739;54.750;9.124;2023-04-16T04:44:32;12.40;;;11.30;;
23140;SDS011;11739;54.750;9.124;2023-04-16T04:46:57;12.98;;;11.88;;
23140;SDS011;11739;54.750;9.124;2023-04-16T04:49:22;13.18;;;11.98;;
23140;SDS011;11739;54.750;9.124;2023-04-16T04:51:48;13.02;;;11.82;;
23140;SDS011;11739;54.750;9.124;2023-04-16T04:54:13;13.20;;;11.98;;
23140;SDS011;11739;54.750;9.124;2023-04-16T04:56:38;14.23;;;12.82;;
23140;SDS011;11739;54.750;9.124;2023-04-16T04:59:03;12.98;;;11.68;;
23140;SDS011;11739;54.750;9.124;2023-04-16T05:01:29;13.07;;;11.85;;
23140;SDS011;11739;54.750;9.124;2023-04-16T05:03:54;13.63;;;12.32;;
23140;SDS011;11739;54.750;9.124;2023-04-16T05:06:19;13.48;;;12.18;;
23140;SDS011;11739;54.750;9.124;2023-04-16T05:08:45;13.52;;;12.30;;
23140;SDS011;11739;54.750;9.124;2023-04-16T05:11:10;12.85;;;11.75;;
23140;SDS011;11739;54.750;9.124;2023-04-16T05:13:35;12.73;;;11.63;;
23140;SDS011;11739;54.750;9.124;2023-04-16T05:16:01;13.48;;;12.23;;
23140;SDS011;11739;54.750;9.124;2023-04-16T05:18:26;13.77;;;12.48;;
23140;SDS011;11739;54.750;9.124;2023-04-16T05:20:51;13.45;;;12.23;;
23140;SDS011;11739;54.750;9.124;2023-04-16T05:23:17;13.00;;;11.80;;
23140;SDS011;11739;54.750;9.124;2023-04-16T05:25:42;12.98;;;11.77;;
23140;SDS011;11739;54.750;9.124;2023-04-16T05:28:08;13.10;;;11.82;;
23140;SDS011;11739;54.750;9.124;2023-04-16T05:30:33;13.25;;;11.90;;
23140;SDS011;11739;54.750;9.124;2023-04-16T05:32:59;13.60;;;12.20;;
23140;SDS011;11739;54.750;9.124;2023-04-16T05:35:24;12.68;;;11.48;;
23140;SDS011;11739;54.750;9.124;2023-04-16T05:37:49;13.57;;;12.30;;
23140;SDS011;11739;54.750;9.124;2023-04-16T05:40:15;13.85;;;12.00;;
23140;SDS011;11739;54.750;9.124;2023-04-16T05:42:40;12.93;;;11.77;;
23140;SDS011;11739;54.750;9.124;2023-04-16T05:45:05;12.52;;;11.32;;
23140;SDS011;11739;54.750;9.124;2023-04-16T05:47:31;12.82;;;11.63;;
23140;SDS011;11739;54.750;9.124;2023-04-16T05:49:56;13.30;;;11.90;;
23140;SDS011;11739;54.750;9.124;2023-04-16T05:52:22;13.30;;;12.10;;
23140;SDS011;11739;54.750;9.124;2023-04-16T05:54:47;14.18;;;12.77;;
23140;SDS011;11739;54.750;9.124;2023-04-16T05:57:12;13.35;;;12.13;;
23140;SDS011;11739;54.750;9.124;2023-04-16T05:59:38;12.73;;;11.60;;
23140;SDS011;11739;54.750;9.124;2023-04-16T06:02:03;13.10;;;11.80;;
23140;SDS011;11739;54.750;9.124;2023-04-16T06:04:28;13.65;;;12.35;;
23140;SDS011;11739;54.750;9.124;2023-04-16T06:06:54;13.52;;;12.23;;
23140;SDS011;11739;54.750;9.124;2023-04-16T06:09:19;12.52;;;11.43;;
23140;SDS011;11739;54.750;9.124;2023-04-16T06:11:44;13.40;;;12.13;;
23140;SDS011;11739;54.750;9.124;2023-04-16T06:14:10;12.82;;;11.65;;
23140;SDS011;11739;54.750;9.124;2023-04-16T06:16:35;12.40;;;11.27;;
23140;SDS011;11739;54.750;9.124;2023-04-16T06:19:00;12.38;;;11.20;;
23140;SDS011;11739;54.750;9.124;2023-04-16T06:21:25;12.75;;;11.55;;
23140;SDS011;11739;54.750;9.124;2023-04-16T06:23:51;13.38;;;12.07;;
23140;SDS011;11739;54.750;9.124;2023-04-16T06:26:16;12.73;;;11.52;;
23140;SDS011;11739;54.750;9.124;2023-04-16T06:28:41;14.30;;;12.57;;
23140;SDS011;11739;54.750;9.124;2023-04-16T06:31:07;12.82;;;11.68;;
23140;SDS011;11739;54.750;9.124;2023-04-16T06:33:32;12.57;;;11.27;;
23140;SDS011;11739;54.750;9.124;2023-04-16T06:35:57;13.55;;;12.35;;
23140;SDS011;11739;54.750;9.124;2023-04-16T06:38:23;13.18;;;11.90;;
23140;SDS011;11739;54.750;9.124;2023-04-16T06:40:48;12.48;;;11.27;;
23140;SDS011;11739;54.750;9.124;2023-04-16T06:43:13;14.05;;;12.65;;
23140;SDS011;11739;54.750;9.124;2023-04-16T06:45:38;13.30;;;12.10;;
23140;SDS011;11739;54.750;9.124;2023-04-16T06:48:04;13.57;;;12.27;;
23140;SDS011;11739;54.750;9.124;2023-04-16T06:50:29;14.13;;;12.65;;
23140;SDS011;11739;54.750;9.124;2023-04-16T06:52:54;14.25;;;12.95;;
23140;SDS011;11739;54.750;9.124;2023-04-16T06:55:20;13.65;;;12.45;;
23140;SDS011;11739;54.750;9.124;2023-04-16T06:57:45;13.73;;;12.50;;
23140;SDS011;11739;54.750;9.124;2023-04-16T07:00:10;13.77;;;12.57;;
23140;SDS011;11739;54.750;9.124;2023-04-16T07:02:36;12.77;;;11.57;;
23140;SDS011;11739;54.750;9.124;2023-04-16T07:05:01;14.05;;;12.63;;
23140;SDS011;11739;54.750;9.124;2023-04-16T07:07:27;13.88;;;12.52;;
23140;SDS011;11739;54.750;9.124;2023-04-16T07:09:52;14.30;;;12.80;;
23140;SDS011;11739;54.750;9.124;2023-04-16T07:12:18;15.38;;;13.88;;
23140;SDS011;11739;54.750;9.124;2023-04-16T07:14:43;14.02;;;12.73;;
23140;SDS011;11739;54.750;9.124;2023-04-16T07:17:09;14.48;;;13.13;;
23140;SDS011;11739;54.750;9.124;2023-04-16T07:19:34;14.30;;;12.88;;
23140;SDS011;11739;54.750;9.124;2023-04-16T07:21:59;13.90;;;12.60;;
23140;SDS011;11739;54.750;9.124;2023-04-16T07:24:25;13.30;;;12.10;;
23140;SDS011;11739;54.750;9.124;2023-04-16T07:26:50;14.68;;;13.27;;
23140;SDS011;11739;54.750;9.124;2023-04-16T07:29:15;14.25;;;12.73;;
23140;SDS011;11739;54.750;9.124;2023-04-16T07:31:40;13.77;;;12.57;;
23140;SDS011;11739;54.750;9.124;2023-04-16T07:34:06;14.50;;;13.10;;
23140;SDS011;11739;54.750;9.124;2023-04-16T07:36:31;15.60;;;14.20;;
23140;SDS011;11739;54.750;9.124;2023-04-16T07:38:56;14.77;;;13.48;;
23140;SDS011;11739;54.750;9.124;2023-04-16T07:41:22;14.68;;;13.38;;
23140;SDS011;11739;54.750;9.124;2023-04-16T07:43:47;14.82;;;13.55;;
23140;SDS011;11739;54.750;9.124;2023-04-16T07:46:12;15.45;;;14.00;;
23140;SDS011;11739;54.750;9.124;2023-04-16T07:48:38;15.30;;;13.85;;
23140;SDS011;11739;54.750;9.124;2023-04-16T07:51:03;15.10;;;13.70;;
23140;SDS011;11739;54.750;9.124;2023-04-16T07:53:28;15.93;;;14.32;;
23140;SDS011;11739;54.750;9.124;2023-04-16T07:55:54;15.18;;;13.70;;
23140;SDS011;11739;54.750;9.124;2023-04-16T07:58:19;15.35;;;13.95;;
23140;SDS011;11739;54.750;9.124;2023-04-16T08:00:45;15.43;;;14.02;;
23140;SDS011;11739;54.750;9.124;2023-04-16T08:03:10;14.48;;;13.07;;
23140;SDS011;11739;54.750;9.124;2023-04-16T08:05:35;14.05;;;12.65;;
23140;SDS011;11739;54.750;9.124;2023-04-16T08:08:00;14.98;;;13.48;;
23140;SDS011;11739;54.750;9.124;2023-04-16T08:10:26;15.75;;;14.02;;
23140;SDS011;11739;54.750;9.124;2023-04-16T08:12:51;14.80;;;13.40;;
23140;SDS011;11739;54.750;9.124;2023-04-16T08:15:17;15.10;;;13.77;;
23140;SDS011;11739;54.750;9.124;2023-04-16T08:17:42;15.05;;;13.30;;
23140;SDS011;11739;54.750;9.124;2023-04-16T08:20:07;16.00;;;14.50;;
23140;SDS011;11739;54.750;9.124;2023-04-16T08:22:33;15.13;;;13.75;;
23140;SDS011;11739;54.750;9.124;2023-04-16T08:24:58;14.45;;;13.05;;
23140;SDS011;11739;54.750;9.124;2023-04-16T08:27:23;16.80;;;13.35;;
23140;SDS011;11739;54.750;9.124;2023-04-16T08:29:49;14.57;;;12.88;;
23140;SDS011;11739;54.750;9.124;2023-04-16T08:32:14;14.38;;;13.07;;
23140;SDS011;11739;54.750;9.124;2023-04-16T08:34:40;15.38;;;13.95;;
23140;SDS011;11739;54.750;9.124;2023-04-16T08:37:05;14.05;;;12.65;;
23140;SDS011;11739;54.750;9.124;2023-04-16T08:39:31;13.85;;;12.52;;
23140;SDS011;11739;54.750;9.124;2023-04-16T08:41:56;13.82;;;12.40;;
23140;SDS011;11739;54.750;9.124;2023-04-16T08:44:26;13.43;;;12.05;;
23140;SDS011;11739;54.750;9.124;2023-04-16T08:46:52;14.43;;;13.02;;
23140;SDS011;11739;54.750;9.124;2023-04-16T08:49:18;13.00;;;11.80;;
23140;SDS011;11739;54.750;9.124;2023-04-16T08:51:44;13.88;;;11.93;;
23140;SDS011;11739;54.750;9.124;2023-04-16T08:54:14;13.13;;;11.93;;
23140;SDS011;11739;54.750;9.124;2023-04-16T08:56:56;12.38;;;11.27;;
23140;SDS011;11739;54.750;9.124;2023-04-16T08:59:22;12.65;;;11.50;;
23140;SDS011;11739;54.750;9.124;2023-04-16T09:01:48;13.18;;;11.93;;
23140;SDS011;11739;54.750;9.124;2023-04-16T09:04:13;13.38;;;12.05;;
23140;SDS011;11739;54.750;9.124;2023-04-16T09:06:39;12.88;;;11.70;;
23140;SDS011;11739;54.750;9.124;2023-04-16T09:09:06;13.15;;;11.85;;
23140;SDS011;11739;54.750;9.124;2023-04-16T09:11:32;12.75;;;11.50;;
23140;SDS011;11739;54.750;9.124;2023-04-16T09:13:58;12.98;;;11.75;;
23140;SDS011;11739;54.750;9.124;2023-04-16T09:16:24;12.68;;;11.38;;
23140;SDS011;11739;54.750;9.124;2023-04-16T09:18:50;12.48;;;11.18;;
23140;SDS011;11739;54.750;9.124;2023-04-16T09:21:16;12.05;;;10.65;;
23140;SDS011;11739;54.750;9.124;2023-04-16T09:23:41;12.07;;;10.98;;
23140;SDS011;11739;54.750;9.124;2023-04-16T09:26:07;12.27;;;11.18;;
23140;SDS011;11739;54.750;9.124;2023-04-16T09:28:45;11.48;;;10.38;;
23140;SDS011;11739;54.750;9.124;2023-04-16T09:31:12;11.82;;;10.63;;
23140;SDS011;11739;54.750;9.124;2023-04-16T09:33:37;10.52;;;9.63;;
23140;SDS011;11739;54.750;9.124;2023-04-16T09:36:02;10.98;;;9.98;;
23140;SDS011;11739;54.750;9.124;2023-04-16T09:38:47;11.05;;;10.02;;
23140;SDS011;11739;54.750;9.124;2023-04-16T09:41:13;11.45;;;10.35;;
23140;SDS011;11739;54.750;9.124;2023-04-16T09:43:39;11.68;;;10.68;;
23140;SDS011;11739;54.750;9.124;2023-04-16T09:46:04;11.43;;;10.32;;
23140;SDS011;11739;54.750;9.124;2023-04-16T09:48:30;12.55;;;11.05;;
23140;SDS011;11739;54.750;9.124;2023-04-16T09:50:56;11.65;;;10.45;;
23140;SDS011;11739;54.750;9.124;2023-04-16T09:53:26;11.50;;;10.40;;
23140;SDS011;11739;54.750;9.124;2023-04-16T09:55:59;11.27;;;10.10;;
23140;SDS011;11739;54.750;9.124;2023-04-16T09:58:25;11.13;;;10.10;;
23140;SDS011;11739;54.750;9.124;2023-04-16T10:00:55;11.55;;;10.45;;
23140;SDS011;11739;54.750;9.124;2023-04-16T10:03:28;12.07;;;10.75;;
23140;SDS011;11739;54.750;9.124;2023-04-16T10:05:54;11.18;;;9.95;;
23140;SDS011;11739;54.750;9.124;2023-04-16T10:08:19;10.88;;;9.77;;
23140;SDS011;11739;54.750;9.124;2023-04-16T10:10:45;11.20;;;10.10;;
23140;SDS011;11739;54.750;9.124;2023-04-16T10:13:10;11.00;;;9.95;;
23140;SDS011;11739;54.750;9.124;2023-04-16T10:15:35;10.85;;;9.85;;
23140;SDS011;11739;54.750;9.124;2023-04-16T10:18:01;10.38;;;9.48;;
23140;SDS011;11739;54.750;9.124;2023-04-16T10:20:27;11.15;;;9.63;;
23140;SDS011;11739;54.750;9.124;2023-04-16T10:22:52;11.25;;;10.05;;
23140;SDS011;11739;54.750;9.124;2023-04-16T10:25:18;10.45;;;9.45;;
23140;SDS011;11739;54.750;9.124;2023-04-16T10:27:43;10.95;;;9.77;;
23140;SDS011;11739;54.750;9.124;2023-04-16T10:30:09;10.70;;;9.75;;
23140;SDS011;11739;54.750;9.124;2023-04-16T10:32:35;11.00;;;9.90;;
23140;SDS011;11739;54.750;9.124;2023-04-16T10:35:00;11.07;;;10.05;;
23140;SDS011;11739;54.750;9.124;2023-04-16T10:37:29;10.55;;;9.55;;
23140;SDS011;11739;54.750;9.124;2023-04-16T10:39:55;11.30;;;10.00;;
23140;SDS011;11739;54.750;9.124;2023-04-16T10:42:20;11.60;;;9.73;;
23140;SDS011;11739;54.750;9.124;2023-04-16T10:44:45;12.80;;;9.80;;
23140;SDS011;11739;54.750;9.124;2023-04-16T10:47:11;10.32;;;9.30;;
23140;SDS011;11739;54.750;9.124;2023-04-16T10:49:37;12.52;;;10.07;;
23140;SDS011;11739;54.750;9.124;2023-04-16T10:52:07;11.20;;;9.43;;
23140;SDS011;11739;54.750;9.124;2023-04-16T10:54:34;11.38;;;10.18;;
23140;SDS011;11739;54.750;9.124;2023-04-16T10:57:03;12.27;;;8.80;;
23140;SDS011;11739;54.750;9.124;2023-04-16T10:59:30;10.60;;;9.57;;
23140;SDS011;11739;54.750;9.124;2023-04-16T11:01:59;12.05;;;9.52;;
23140;SDS011;11739;54.750;9.124;2023-04-16T11:04:32;10.80;;;9.70;;
23140;SDS011;11739;54.750;9.124;2023-04-16T11:09:41;11.27;;;9.23;;
23140;SDS011;11739;54.750;9.124;2023-04-16T11:12:23;13.20;;;11.02;;
23140;SDS011;11739;54.750;9.124;2023-04-16T11:14:50;10.82;;;9.75;;
23140;SDS011;11739;54.750;9.124;2023-04-16T11:17:16;11.13;;;9.95;;
23140;SDS011;11739;54.750;9.124;2023-04-16T11:19:42;11.68;;;10.48;;
23140;SDS011;11739;54.750;9.124;2023-04-16T11:22:10;12.23;;;10.25;;
23140;SDS011;11739;54.750;9.124;2023-04-16T11:24:36;11.35;;;9.70;;
23140;SDS011;11739;54.750;9.124;2023-04-16T11:27:01;10.60;;;9.60;;
23140;SDS011;11739;54.750;9.124;2023-04-16T11:29:26;12.40;;;10.32;;
23140;SDS011;11739;54.750;9.124;2023-04-16T11:31:52;11.65;;;10.52;;
23140;SDS011;11739;54.750;9.124;2023-04-16T11:34:18;10.88;;;9.88;;
23140;SDS011;11739;54.750;9.124;2023-04-16T11:36:44;11.43;;;10.25;;
23140;SDS011;11739;54.750;9.124;2023-04-16T11:39:13;10.65;;;9.65;;
23140;SDS011;11739;54.750;9.124;2023-04-16T11:41:45;10.80;;;9.70;;
23140;SDS011;11739;54.750;9.124;2023-04-16T11:44:24;7.57;;;6.88;;
23140;SDS011;11739;54.750;9.124;2023-04-16T11:46:50;12.77;;;9.90;;
23140;SDS011;11739;54.750;9.124;2023-04-16T11:49:16;11.55;;;9.65;;
23140;SDS011;11739;54.750;9.124;2023-04-16T11:51:42;10.27;;;9.27;;
23140;SDS011;11739;54.750;9.124;2023-04-16T11:54:08;11.55;;;9.50;;
23140;SDS011;11739;54.750;9.124;2023-04-16T11:56:34;11.02;;;9.57;;
23140;SDS011;11739;54.750;9.124;2023-04-16T12:01:32;10.70;;;9.60;;
23140;SDS011;11739;54.750;9.124;2023-04-16T12:04:00;10.55;;;9.55;;
23140;SDS011;11739;54.750;9.124;2023-04-16T12:06:25;10.32;;;9.30;;
23140;SDS011;11739;54.750;9.124;2023-04-16T12:08:51;11.00;;;9.45;;
23140;SDS011;11739;54.750;9.124;2023-04-16T12:11:16;10.85;;;9.70;;
23140;SDS011;11739;54.750;9.124;2023-04-16T12:13:41;12.80;;;10.50;;
23140;SDS011;11739;54.750;9.124;2023-04-16T12:16:19;16.38;;;9.75;;
23140;SDS011;11739;54.750;9.124;2023-04-16T12:19:00;22.02;;;11.05;;
23140;SDS011;11739;54.750;9.124;2023-04-16T12:21:39;27.00;;;12.43;;
23140;SDS011;11739;54.750;9.124;2023-04-16T12:24:09;28.42;;;11.00;;
23140;SDS011;11739;54.750;9.124;2023-04-16T12:26:39;19.73;;;9.98;;
23140;SDS011;11739;54.750;9.124;2023-04-16T12:29:15;13.93;;;9.85;;
23140;SDS011;11739;54.750;9.124;2023-04-16T12:31:41;19.80;;;10.00;;
23140;SDS011;11739;54.750;9.124;2023-04-16T12:34:06;12.85;;;8.88;;
23140;SDS011;11739;54.750;9.124;2023-04-16T12:36:32;10.82;;;8.68;;
23140;SDS011;11739;54.750;9.124;2023-04-16T12:38:57;11.65;;;8.52;;
23140;SDS011;11739;54.750;9.124;2023-04-16T12:41:22;13.43;;;8.88;;
23140;SDS011;11739;54.750;9.124;2023-04-16T12:43:48;11.52;;;8.48;;
23140;SDS011;11739;54.750;9.124;2023-04-16T12:46:13;9.88;;;7.95;;
23140;SDS011;11739;54.750;9.124;2023-04-16T12:48:38;10.82;;;8.13;;
23140;SDS011;11739;54.750;9.124;2023-04-16T12:51:04;12.70;;;8.65;;
23140;SDS011;11739;54.750;9.124;2023-04-16T12:53:29;13.50;;;8.30;;
23140;SDS011;11739;54.750;9.124;2023-04-16T12:55:55;10.30;;;8.32;;
23140;SDS011;11739;54.750;9.124;2023-04-16T12:58:20;10.07;;;8.75;;
23140;SDS011;11739;54.750;9.124;2023-04-16T13:00:45;10.00;;;8.30;;
23140;SDS011;11739;54.750;9.124;2023-04-16T13:03:11;10.20;;;8.38;;
23140;SDS011;11739;54.750;9.124;2023-04-16T13:05:36;9.43;;;8.45;;
23140;SDS011;11739;54.750;9.124;2023-04-16T13:08:01;10.05;;;8.20;;
23140;SDS011;11739;54.750;9.124;2023-04-16T13:10:26;8.80;;;7.90;;
23140;SDS011;11739;54.750;9.124;2023-04-16T13:12:52;9.55;;;8.00;;
23140;SDS011;11739;54.750;9.124;2023-04-16T13:15:17;9.60;;;8.70;;
23140;SDS011;11739;54.750;9.124;2023-04-16T13:17:42;8.80;;;7.90;;
23140;SDS011;11739;54.750;9.124;2023-04-16T13:20:08;9.52;;;8.18;;
23140;SDS011;11739;54.750;9.124;2023-04-16T13:22:33;11.50;;;8.50;;
23140;SDS011;11739;54.750;9.124;2023-04-16T13:24:59;10.10;;;8.40;;
23140;SDS011;11739;54.750;9.124;2023-04-16T13:27:24;9.23;;;8.32;;
23140;SDS011;11739;54.750;9.124;2023-04-16T13:29:49;8.10;;;7.30;;
23140;SDS011;11739;54.750;9.124;2023-04-16T13:32:15;9.52;;;8.27;;
23140;SDS011;11739;54.750;9.124;2023-04-16T13:34:40;8.93;;;8.02;;
23140;SDS011;11739;54.750;9.124;2023-04-16T13:37:05;9.77;;;8.25;;
23140;SDS011;11739;54.750;9.124;2023-04-16T13:39:31;9.68;;;8.25;;
23140;SDS011;11739;54.750;9.124;2023-04-16T13:41:56;8.60;;;7.32;;
23140;SDS011;11739;54.750;9.124;2023-04-16T13:44:21;8.85;;;8.02;;
23140;SDS011;11739;54.750;9.124;2023-04-16T13:46:46;8.90;;;7.97;;
23140;SDS011;11739;54.750;9.124;2023-04-16T13:49:12;8.98;;;7.70;;
23140;SDS011;11739;54.750;9.124;2023-04-16T13:51:38;8.82;;;7.90;;
23140;SDS011;11739;54.750;9.124;2023-04-16T13:54:03;8.63;;;7.85;;
23140;SDS011;11739;54.750;9.124;2023-04-16T13:56:28;9.07;;;8.18;;
23140;SDS011;11739;54.750;9.124;2023-04-16T13:58:53;10.40;;;8.38;;
23140;SDS011;11739;54.750;9.124;2023-04-16T14:01:19;8.98;;;8.07;;
23140;SDS011;11739;54.750;9.124;2023-04-16T14:03:44;9.35;;;8.40;;
23140;SDS011;11739;54.750;9.124;2023-04-16T14:06:09;8.88;;;8.00;;
23140;SDS011;11739;54.750;9.124;2023-04-16T14:08:35;10.52;;;8.23;;
23140;SDS011;11739;54.750;9.124;2023-04-16T14:11:00;8.48;;;7.70;;
23140;SDS011;11739;54.750;9.124;2023-04-16T14:13:25;10.65;;;7.97;;
23140;SDS011;11739;54.750;9.124;2023-04-16T14:15:54;8.63;;;7.82;;
23140;SDS011;11739;54.750;9.124;2023-04-16T14:18:19;9.57;;;8.65;;
23140;SDS011;11739;54.750;9.124;2023-04-16T14:20:44;9.57;;;8.60;;
23140;SDS011;11739;54.750;9.124;2023-04-16T14:23:10;9.43;;;8.45;;